»·PEaware :: N2102W KVNY-KCNO

N2102W :: KVNY-KCNO

FLIGHT INFORMATION

Flight Status: Arrived
Operator: Privately registered:
United States
More flights under this callsign
Pilot: Eric G. (5941)
Aircraft: Cessna 525C Citation CJ4
(C25C)
More flights by this aircraft type
Origin: KVNY Van Nuys
United States
Destination: KCNO Chino
United States
More flights between these airports :: More routes between these airports
Route: +V186 ITSME V264 POM V197 PDZ
File this flight plan on PilotEdge
Remarks: NA
Altitude:
(Current/Filed)
8,000ft
Speed:
(Current/Filed)
250kts
Departed: 26-Sep-20 10:10 AM
Arrived: 26-Sep-20 10:33 AM
Distance/Time
Traveled:
44nm/0:23
Distance/Time
To Go:
Arrived

Flight Plot

Page will automatically refresh every two minutes.

Flight plan parsing failed; only flown route is shown


Map Options




Map Legend


Flown Route
Filed Route
Departure Airport
Arrival Airport
Navaid (VOR, NDB)
Fix

Horizontal Profiles

Position Reports

Time Latitude Longitude Heading Altitude Ground
Speed
26-Sep-20 09:43 34.216522 -118.492933 167 796ft 0kts
26-Sep-20 09:44 34.216522 -118.492933 167 796ft 0kts
26-Sep-20 09:45 34.216651 -118.492967 167 797ft 0kts
26-Sep-20 09:46 34.216651 -118.492967 167 797ft 0kts
26-Sep-20 09:47 34.216651 -118.492967 167 797ft 0kts
26-Sep-20 09:48 34.216651 -118.492967 167 797ft 0kts
26-Sep-20 09:49 34.216650 -118.492967 167 797ft 0kts
26-Sep-20 09:50 34.216650 -118.492967 167 797ft 0kts
26-Sep-20 09:51 34.216650 -118.492967 167 797ft 0kts
26-Sep-20 09:52 34.216650 -118.492967 167 797ft 0kts
26-Sep-20 09:53 34.216650 -118.492967 167 797ft 0kts
26-Sep-20 09:54 34.216650 -118.492967 167 797ft 0kts
26-Sep-20 09:55 34.216650 -118.492967 167 797ft 0kts
26-Sep-20 09:56 34.216650 -118.492967 167 797ft 0kts
26-Sep-20 09:57 34.216650 -118.492967 167 797ft 0kts
26-Sep-20 09:58 34.216650 -118.492967 167 797ft 0kts
26-Sep-20 09:59 34.216586 -118.492826 91 797ft 0kts
26-Sep-20 10:00 34.216586 -118.492826 91 797ft 0kts
26-Sep-20 10:01 34.216586 -118.492826 91 797ft 0kts
26-Sep-20 10:02 34.216586 -118.492826 91 797ft 0kts
26-Sep-20 10:03 34.216586 -118.492826 91 797ft 0kts
26-Sep-20 10:04 34.216720 -118.492439 50 797ft 4kts
26-Sep-20 10:05 34.218090 -118.492358 354 800ft 6kts
26-Sep-20 10:06 34.218747 -118.492132 72 802ft 0kts
26-Sep-20 10:07 34.218758 -118.492087 73 802ft 4kts
26-Sep-20 10:08 34.218693 -118.491199 176 802ft 0kts
26-Sep-20 10:09 34.174152 -118.484434 158 3057ft 239kts
26-Sep-20 10:10 34.133330 -118.426400 121 3923ft 244kts
26-Sep-20 10:11 34.119847 -118.341896 89 3932ft 240kts
26-Sep-20 10:12 34.120343 -118.266178 91 4375ft 213kts
26-Sep-20 10:13 34.116881 -118.192063 96 6160ft 232kts
26-Sep-20 10:14 34.108867 -118.111267 97 6923ft 261kts
26-Sep-20 10:15 34.100793 -118.028888 96 6941ft 274kts
26-Sep-20 10:16 34.091998 -117.938712 96 6938ft 277kts
26-Sep-20 10:17 34.083179 -117.848592 96 6937ft 268kts
26-Sep-20 10:18 34.059130 -117.768507 120 6051ft 250kts
26-Sep-20 10:19 34.022661 -117.698646 124 5042ft 248kts
26-Sep-20 10:20 33.985228 -117.631447 124 4604ft 237kts
26-Sep-20 10:21 33.947133 -117.567576 127 4343ft 234kts
26-Sep-20 10:22 33.938110 -117.498328 70 4336ft 220kts
26-Sep-20 10:23 33.958620 -117.431951 64 4331ft 208kts
26-Sep-20 10:24 33.981973 -117.368063 57 4326ft 206kts
26-Sep-20 10:25 34.020584 -117.318607 90 4346ft 213kts
26-Sep-20 10:26 33.978457 -117.315625 252 4347ft 233kts
26-Sep-20 10:27 33.979382 -117.390875 271 4324ft 230kts
26-Sep-20 10:28 33.976528 -117.464642 264 3405ft 213kts
26-Sep-20 10:29 33.976997 -117.534356 267 2685ft 183kts
26-Sep-20 10:30 33.976425 -117.592045 268 1740ft 135kts
26-Sep-20 10:31 33.975841 -117.631637 269 646ft 100kts
26-Sep-20 10:32 33.976087 -117.644137 357 620ft 8kts
26-Sep-20 10:34 33.976854 -117.643226 91 621ft 13kts
26-Sep-20 10:35 33.976864 -117.640290 86 625ft 6kts
26-Sep-20 10:36 33.977336 -117.639701 127 626ft 1kts
26-Sep-20 10:37 33.977356 -117.639730 127 626ft 0kts
26-Sep-20 10:38 33.977356 -117.639730 127 626ft 0kts

Navigation Log

Ident Type
Flight plan parsing failed, navigation log unavailable